Time;durP1;ratioP1;P1;durP2;ratioP2;P2;SDS_P1;SDS_P2;PMS_P1;PMS_P2;Temp;Humidity;BMP_temperature;BMP_pressure;BME280_temperature;BME280_humidity;BME280_pressure;Samples;Min_cycle;Max_cycle;Signal;HPM_P1;HPM_P2
2023/06/16 00:01:03;;;;;;;5.83;4.97;;;;;;;16.00;71.18;98162.09;5072023;28;20227;-79
2023/06/16 00:03:33;;;;;;;7.07;5.17;;;;;;;15.89;72.19;98165.72;5072717;28;20215;-79
2023/06/16 00:06:03;;;;;;;6.00;5.40;;;;;;;15.82;72.73;98166.41;5072747;28;20203;-79
2023/06/16 00:08:31;;;;;;;5.87;5.27;;;;;;;15.66;74.08;98158.09;5072639;28;20256;-79
2023/06/16 00:10:58;;;;;;;5.57;5.03;;;;;;;15.53;74.88;98168.16;5071900;28;20250;-79
2023/06/16 00:13:25;;;;;;;6.27;4.57;;;;;;;15.45;74.55;98165.34;5072706;28;20395;-79
2023/06/16 00:15:52;;;;;;;6.03;5.03;;;;;;;15.42;74.12;98165.59;5072610;28;20212;-79
2023/06/16 00:18:19;;;;;;;6.30;4.93;;;;;;;15.40;73.12;98159.56;5072733;28;20752;-79
2023/06/16 00:20:51;;;;;;;6.43;5.30;;;;;;;15.36;72.93;98155.47;5071512;28;20277;-79
2023/06/16 00:23:20;;;;;;;6.53;5.10;;;;;;;15.34;73.17;98165.44;5072343;28;20225;-79
2023/06/16 00:25:48;;;;;;;5.93;5.33;;;;;;;15.30;74.38;98163.97;5072316;28;20203;-79
2023/06/16 00:28:15;;;;;;;5.17;4.67;;;;;;;15.28;74.02;98163.28;5072292;28;20678;-79
2023/06/16 00:30:41;;;;;;;6.13;5.50;;;;;;;15.41;72.64;98155.94;5071566;28;20227;-79
2023/06/16 00:33:09;;;;;;;6.87;5.50;;;;;;;15.27;73.54;98158.94;5072139;28;20654;-79
2023/06/16 00:35:36;;;;;;;5.43;4.93;;;;;;;15.14;75.31;98160.94;5072143;28;20536;-79
2023/06/16 00:38:03;;;;;;;6.10;5.50;;;;;;;15.04;76.22;98157.44;5072322;28;20204;-79
2023/06/16 00:40:29;;;;;;;6.53;5.27;;;;;;;14.99;77.17;98151.66;5071161;28;20238;-79
2023/06/16 00:42:58;;;;;;;5.73;5.13;;;;;;;14.95;77.34;98152.88;5072247;28;20290;-79
2023/06/16 00:45:25;;;;;;;5.73;5.17;;;;;;;14.95;77.38;98152.88;5072167;28;20242;-79
2023/06/16 00:47:52;;;;;;;6.90;5.20;;;;;;;15.01;77.89;98149.69;5072046;28;20234;-80
2023/06/16 00:50:19;;;;;;;7.20;5.07;;;;;;;15.05;77.49;98146.66;5071055;28;20254;-79
2023/06/16 00:52:46;;;;;;;5.30;4.70;;;;;;;15.13;77.53;98148.63;5072119;28;20211;-79
2023/06/16 00:55:13;;;;;;;5.37;4.87;;;;;;;15.15;77.52;98136.88;5071824;28;20673;-79
2023/06/16 00:57:40;;;;;;;5.83;5.20;;;;;;;15.11;77.50;98145.28;5072159;28;20208;-80
2023/06/16 01:00:11;;;;;;;5.80;5.20;;;;;;;15.07;78.10;98149.16;5069419;28;20306;-78
2023/06/16 01:02:38;;;;;;;6.20;5.60;;;;;;;15.00;78.25;98151.53;5068818;28;20746;-78
2023/06/16 01:05:08;;;;;;;5.80;5.20;;;;;;;14.90;78.56;98152.47;5068967;28;20207;-78
2023/06/16 01:07:40;;;;;;;6.13;5.47;;;;;;;14.79;79.11;98144.56;5068895;28;20215;-78
2023/06/16 01:10:14;;;;;;;5.97;5.43;;;;;;;14.66;79.20;98149.25;5070843;28;20211;-78
2023/06/16 01:12:53;;;;;;;6.30;5.70;;;;;;;14.53;79.71;98157.41;5071505;28;20222;-78
2023/06/16 01:15:23;;;;;;;6.87;6.17;;;;;;;14.45;80.22;98156.38;5071721;28;20196;-78
2023/06/16 01:17:53;;;;;;;7.67;5.40;;;;;;;14.38;80.32;98150.72;5071600;28;20234;-79
2023/06/16 01:20:28;;;;;;;6.90;5.10;;;;;;;14.37;80.23;98149.03;5070553;28;20402;-79
2023/06/16 01:23:07;;;;;;;5.33;4.83;;;;;;;14.31;80.19;98146.88;5071228;28;20270;-79
2023/06/16 01:25:39;;;;;;;6.37;5.70;;;;;;;14.25;81.21;98149.22;5071147;28;20207;-79
2023/06/16 01:28:07;;;;;;;6.50;5.50;;;;;;;14.21;81.53;98148.63;5071217;28;20242;-78
2023/06/16 01:30:35;;;;;;;6.73;5.67;;;;;;;14.19;82.24;98147.06;5070190;28;20234;-79
2023/06/16 01:33:04;;;;;;;6.10;5.40;;;;;;;14.18;82.62;98145.34;5071606;28;20554;-78
2023/06/16 01:35:34;;;;;;;5.67;5.17;;;;;;;14.18;82.54;98134.72;5070639;28;20277;-78
2023/06/16 01:38:01;;;;;;;5.70;5.20;;;;;;;14.24;82.25;98137.72;5071155;28;20248;-78
2023/06/16 01:40:30;;;;;;;5.83;5.23;;;;;;;14.25;82.53;98143.91;5070285;28;20231;-79
2023/06/16 01:42:59;;;;;;;5.93;5.33;;;;;;;14.29;82.70;98140.03;5071504;28;20215;-78
2023/06/16 01:45:26;;;;;;;5.63;5.00;;;;;;;14.38;81.90;98140.09;5071109;28;20218;-78
2023/06/16 01:47:54;;;;;;;7.70;5.40;;;;;;;14.40;82.51;98142.59;5071057;28;20212;-79
2023/06/16 01:50:22;;;;;;;6.47;5.87;;;;;;;14.38;82.51;98140.09;5070108;28;20234;-79
2023/06/16 01:52:48;;;;;;;6.20;5.13;;;;;;;14.37;82.74;98145.53;5070811;28;20215;-78
2023/06/16 01:55:14;;;;;;;6.17;5.57;;;;;;;14.41;81.27;98144.28;5071085;28;20259;-79
2023/06/16 01:57:41;;;;;;;5.90;5.20;;;;;;;14.32;80.73;98140.63;5070825;28;20208;-79
2023/06/16 02:00:16;;;;;;;5.90;5.30;;;;;;;14.26;81.26;98142.94;5070083;28;20227;-78
2023/06/16 02:02:50;;;;;;;6.87;5.67;;;;;;;14.18;82.96;98148.00;5070859;28;20207;-79
2023/06/16 02:05:21;;;;;;;6.00;5.40;;;;;;;14.17;83.11;98146.34;5070848;28;20207;-79
2023/06/16 02:07:51;;;;;;;6.40;5.50;;;;;;;14.19;83.76;98149.72;5071141;28;20215;-79
2023/06/16 02:10:20;;;;;;;6.83;5.83;;;;;;;14.15;83.53;98148.25;5070111;28;20601;-79
2023/06/16 02:12:47;;;;;;;6.43;5.70;;;;;;;14.19;83.27;98152.38;5070745;28;20216;-79
2023/06/16 02:15:17;;;;;;;7.23;5.50;;;;;;;14.30;83.20;98147.03;5070691;28;20207;-79
2023/06/16 02:17:44;;;;;;;5.80;5.30;;;;;;;14.42;83.64;98156.63;5070724;28;20214;-79
2023/06/16 02:20:11;;;;;;;6.07;5.47;;;;;;;14.57;82.74;98147.34;5069896;28;20231;-79
2023/06/16 02:22:37;;;;;;;5.57;5.00;;;;;;;14.75;81.85;98156.41;5070702;28;20207;-79
2023/06/16 02:25:05;;;;;;;6.97;5.53;;;;;;;14.89;78.77;98150.75;5070616;28;20208;-79
2023/06/16 02:27:32;;;;;;;6.80;5.90;;;;;;;14.77;78.51;98151.81;5070770;28;20230;-79
2023/06/16 02:29:58;;;;;;;6.33;5.60;;;;;;;14.65;80.01;98152.84;5069681;28;20215;-79
2023/06/16 02:32:26;;;;;;;6.47;5.83;;;;;;;14.61;81.38;98154.09;5070148;28;20557;-79
2023/06/16 02:34:53;;;;;;;6.57;5.97;;;;;;;14.63;82.45;98160.13;5070536;28;20207;-79
2023/06/16 02:37:20;;;;;;;6.97;6.27;;;;;;;14.59;83.19;98158.69;5070639;28;20212;-79
2023/06/16 02:39:46;;;;;;;6.87;6.13;;;;;;;14.56;83.31;98164.28;5069752;28;20223;-79
2023/06/16 02:42:13;;;;;;;6.83;6.23;;;;;;;14.60;83.12;98165.72;5085420;22;20304;-82
2023/06/16 02:44:39;;;;;;;6.57;5.97;;;;;;;14.59;83.25;98158.69;5070755;28;20223;-82
2023/06/16 02:47:06;;;;;;;7.27;6.57;;;;;;;14.62;83.37;98163.75;5073116;28;20211;-82
2023/06/16 02:49:34;;;;;;;6.83;6.13;;;;;;;14.64;83.76;98156.50;5073601;28;20302;-82
2023/06/16 02:52:00;;;;;;;5.90;5.30;;;;;;;14.63;83.98;98157.47;5074363;28;20259;-83
2023/06/16 02:54:27;;;;;;;7.73;6.53;;;;;;;14.63;82.98;98154.81;5074557;28;20211;-82
2023/06/16 02:56:53;;;;;;;6.73;5.73;;;;;;;14.61;82.59;98152.25;5074362;28;20397;-82
2023/06/16 02:59:20;;;;;;;6.80;5.97;;;;;;;14.60;82.71;98149.75;5073379;28;20285;-82
2023/06/16 03:01:46;;;;;;;6.43;5.83;;;;;;;14.60;82.93;98149.75;5074160;28;20235;-82
2023/06/16 03:04:13;;;;;;;6.17;5.57;;;;;;;14.60;82.68;98157.75;5074254;28;20590;-82
2023/06/16 03:06:44;;;;;;;6.50;5.40;;;;;;;14.63;82.83;98152.16;5074153;28;20207;-82
2023/06/16 03:09:11;;;;;;;6.43;5.50;;;;;;;14.70;82.06;98155.97;5073363;28;20315;-82
2023/06/16 03:11:38;;;;;;;6.83;5.93;;;;;;;14.76;81.62;98150.97;5073699;28;20236;-82
2023/06/16 03:14:04;;;;;;;7.10;6.40;;;;;;;14.83;81.41;98154.78;5073739;28;20215;-82
2023/06/16 03:16:31;;;;;;;6.70;5.80;;;;;;;14.89;81.27;98150.75;5074155;28;20207;-82
2023/06/16 03:18:57;;;;;;;5.80;5.20;;;;;;;14.93;80.78;98157.50;5073841;28;20210;-82
2023/06/16 03:21:24;;;;;;;6.73;6.00;;;;;;;14.98;80.26;98152.63;5072809;28;20242;-82
2023/06/16 03:23:52;;;;;;;7.47;6.03;;;;;;;15.06;78.54;98158.13;5073685;28;20211;-82
2023/06/16 03:26:19;;;;;;;6.27;5.47;;;;;;;15.07;78.46;98149.16;5073801;28;20210;-82
2023/06/16 03:28:45;;;;;;;6.80;5.63;;;;;;;15.00;78.86;98158.66;5073591;28;20223;-82
2023/06/16 03:31:12;;;;;;;5.97;5.37;;;;;;;14.94;79.09;98159.19;5073095;28;20234;-82
2023/06/16 03:33:38;;;;;;;6.37;5.77;;;;;;;14.96;78.27;98157.25;5073568;28;20211;-82
2023/06/16 03:36:06;;;;;;;6.27;5.50;;;;;;;14.86;78.07;98159.00;5073361;28;20218;-82
2023/06/16 03:38:32;;;;;;;6.23;5.40;;;;;;;14.77;78.53;98162.44;5073547;28;20207;-82
2023/06/16 03:41:00;;;;;;;6.10;5.50;;;;;;;14.66;80.05;98168.69;5072625;28;20730;-82
2023/06/16 03:43:26;;;;;;;5.47;4.97;;;;;;;14.59;80.83;98161.34;5073773;28;20218;-82
2023/06/16 03:45:53;;;;;;;6.47;5.40;;;;;;;14.56;81.65;98158.97;5073337;28;20207;-82
2023/06/16 03:48:19;;;;;;;6.17;5.47;;;;;;;14.55;81.51;98163.44;5073458;28;20211;-82
2023/06/16 03:50:46;;;;;;;7.23;5.57;;;;;;;14.54;81.29;98160.91;5072563;28;20273;-82
2023/06/16 03:53:12;;;;;;;6.67;5.60;;;;;;;14.57;81.53;98169.47;5073218;28;20226;-82
2023/06/16 03:55:39;;;;;;;6.27;5.67;;;;;;;14.60;81.09;98163.06;5073066;28;20214;-82
2023/06/16 03:58:07;;;;;;;6.90;6.20;;;;;;;14.60;81.04;98168.38;5072829;28;20207;-82
2023/06/16 04:00:34;;;;;;;7.43;5.60;;;;;;;14.63;81.38;98170.75;5072220;28;20739;-82
2023/06/16 04:03:01;;;;;;;5.93;5.10;;;;;;;14.63;81.68;98176.09;5073229;28;20208;-82
2023/06/16 04:05:28;;;;;;;6.33;5.30;;;;;;;14.62;81.92;98174.41;5073041;28;20214;-82
2023/06/16 04:07:54;;;;;;;6.73;5.77;;;;;;;14.63;82.20;98173.44;5073147;28;20208;-82
2023/06/16 04:10:21;;;;;;;5.77;5.17;;;;;;;14.67;82.64;98174.88;5072455;28;20207;-81
2023/06/16 04:12:47;;;;;;;6.87;6.17;;;;;;;14.68;82.66;98179.22;5073324;28;20211;-82
2023/06/16 04:15:15;;;;;;;6.00;5.47;;;;;;;14.66;83.10;98178.50;5072975;28;20706;-82
2023/06/16 04:17:41;;;;;;;6.67;6.00;;;;;;;14.63;83.68;98176.09;5073137;28;20219;-82
2023/06/16 04:20:11;;;;;;;9.03;6.33;;;;;;;14.67;83.18;98172.19;5072061;28;20211;-82
2023/06/16 04:22:37;;;;;;;7.67;6.03;;;;;;;14.69;83.36;98171.09;5072900;28;20247;-82
2023/06/16 04:25:04;;;;;;;8.57;6.30;;;;;;;14.77;83.21;98178.41;5072611;28;20208;-82
2023/06/16 04:27:31;;;;;;;7.57;6.37;;;;;;;14.81;82.97;98172.72;5072851;28;20578;-82
2023/06/16 04:29:58;;;;;;;6.73;5.90;;;;;;;14.83;83.23;98173.41;5071820;28;20673;-82
2023/06/16 04:32:28;;;;;;;7.27;6.30;;;;;;;14.91;81.02;98170.94;5072479;28;20231;-82
2023/06/16 04:34:57;;;;;;;7.03;5.97;;;;;;;14.99;80.71;98179.13;5072522;28;20214;-83
2023/06/16 04:37:24;;;;;;;6.83;6.13;;;;;;;15.04;79.93;98170.72;5072679;28;20298;-83
2023/06/16 04:39:50;;;;;;;6.63;5.37;;;;;;;15.06;79.62;98174.09;5071884;28;20686;-83
2023/06/16 04:42:17;;;;;;;10.67;5.87;;;;;;;15.15;80.73;98170.66;5072251;28;20231;-83
2023/06/16 04:44:44;;;;;;;6.47;5.57;;;;;;;15.16;79.66;98169.69;5072616;28;20210;-83
2023/06/16 04:47:12;;;;;;;7.20;5.90;;;;;;;15.23;80.10;98169.00;5072223;28;20214;-83
2023/06/16 04:49:40;;;;;;;6.80;5.97;;;;;;;15.22;80.66;98169.13;5071520;28;20215;-83
2023/06/16 04:52:07;;;;;;;6.73;5.80;;;;;;;15.18;81.36;98170.38;5072748;28;20227;-83
2023/06/16 04:54:34;;;;;;;6.67;5.70;;;;;;;15.19;81.80;98169.38;5072568;28;20208;-83
2023/06/16 04:57:00;;;;;;;7.37;6.50;;;;;;;15.23;81.68;98162.84;5072028;28;20689;-83
2023/06/16 04:59:27;;;;;;;6.80;6.10;;;;;;;15.45;81.14;98171.50;5071694;28;20595;-82
2023/06/16 05:01:53;;;;;;;8.03;5.90;;;;;;;15.76;79.63;98169.63;5072187;28;20235;-83
2023/06/16 05:04:21;;;;;;;9.93;6.60;;;;;;;16.27;76.67;98161.25;5072194;28;20207;-84
2023/06/16 05:06:49;;;;;;;7.07;6.20;;;;;;;16.91;73.48;98153.47;5072435;28;20211;-80
2023/06/16 05:09:15;;;;;;;7.77;6.90;;;;;;;17.42;71.85;98157.41;5070423;28;20258;-80
2023/06/16 05:11:42;;;;;;;7.77;6.63;;;;;;;17.94;69.77;98147.81;5072118;28;20223;-78
2023/06/16 05:14:09;;;;;;;8.77;7.30;;;;;;;18.45;67.62;98143.50;5072000;28;20237;-82
2023/06/16 05:16:36;;;;;;;8.50;7.00;;;;;;;18.89;65.81;98128.28;5072474;28;20227;-80
2023/06/16 05:19:02;;;;;;;9.90;7.60;;;;;;;19.29;63.73;98120.50;5072475;28;20241;-85
2023/06/16 05:21:29;;;;;;;8.57;7.20;;;;;;;19.66;62.18;98115.63;5072343;28;20284;-78
2023/06/16 05:23:57;;;;;;;9.13;7.23;;;;;;;19.94;60.41;98109.00;5072027;28;20211;-78
2023/06/16 05:26:24;;;;;;;8.37;6.47;;;;;;;20.28;59.61;98107.91;5072097;28;20207;-79
2023/06/16 05:28:51;;;;;;;9.33;8.17;;;;;;;20.52;58.66;98099.00;5071899;28;20214;-78
2023/06/16 05:31:17;;;;;;;8.17;6.93;;;;;;;20.79;57.75;98112.91;5070802;28;20230;-78
2023/06/16 05:33:44;;;;;;;10.30;7.20;;;;;;;21.03;57.02;98102.16;5071861;28;20211;-80
2023/06/16 05:36:10;;;;;;;8.70;7.50;;;;;;;21.25;56.17;98097.88;5071365;28;20214;-80
2023/06/16 05:38:37;;;;;;;9.17;6.90;;;;;;;21.49;55.55;98103.16;5071565;28;20250;-79
2023/06/16 05:41:04;;;;;;;8.03;7.23;;;;;;;21.68;54.55;98098.25;5070305;28;20254;-80
2023/06/16 05:43:31;;;;;;;7.57;6.77;;;;;;;21.89;53.92;98097.63;5071361;28;20208;-81
2023/06/16 05:45:57;;;;;;;9.10;6.90;;;;;;;22.11;53.53;98094.94;5071159;28;20630;-82
2023/06/16 05:48:24;;;;;;;8.33;7.00;;;;;;;22.30;53.04;98097.16;5071166;28;20218;-82
2023/06/16 05:50:50;;;;;;;8.70;6.87;;;;;;;22.50;52.00;98087.59;5070547;28;20227;-81
2023/06/16 05:53:17;;;;;;;9.17;7.20;;;;;;;22.61;52.19;98099.81;5071248;28;20215;-80
2023/06/16 05:55:43;;;;;;;8.13;7.30;;;;;;;22.80;52.05;98102.00;5071037;28;20671;-81
2023/06/16 05:58:11;;;;;;;8.87;6.50;;;;;;;22.96;50.98;98091.03;5071231;28;20207;-82
2023/06/16 06:00:38;;;;;;;8.30;6.70;;;;;;;23.09;50.95;98094.78;5070330;28;20218;-81
2023/06/16 06:03:04;;;;;;;9.07;7.03;;;;;;;23.19;50.48;98095.38;5071570;28;20210;-81
2023/06/16 06:05:31;;;;;;;9.63;7.43;;;;;;;23.35;49.97;98099.75;5071274;28;20233;-81
2023/06/16 06:07:57;;;;;;;7.57;6.73;;;;;;;23.47;49.38;98088.28;5071192;28;20214;-82
2023/06/16 06:10:24;;;;;;;7.97;6.97;;;;;;;23.62;48.50;98085.59;5069185;28;20408;-81
2023/06/16 06:12:50;;;;;;;9.53;7.07;;;;;;;23.73;48.01;98088.66;5068445;28;20207;-81
2023/06/16 06:15:18;;;;;;;9.03;7.10;;;;;;;23.81;47.42;98091.22;5069911;28;20557;-81
2023/06/16 06:17:45;;;;;;;11.00;6.70;;;;;;;23.96;47.11;98086.66;5069276;28;20634;-81
2023/06/16 06:20:12;;;;;;;8.57;7.03;;;;;;;24.21;47.03;98092.53;5071805;28;20254;-82
2023/06/16 06:22:39;;;;;;;8.20;6.83;;;;;;;24.24;46.39;98087.59;5074923;28;20265;-81
2023/06/16 06:25:06;;;;;;;7.37;6.17;;;;;;;24.32;46.02;98082.06;5075036;28;20594;-81
2023/06/16 06:27:32;;;;;;;7.13;6.13;;;;;;;24.36;45.83;98096.84;5074938;28;20288;-81
2023/06/16 06:29:59;;;;;;;9.30;6.50;;;;;;;24.46;45.82;98091.13;5074345;28;20497;-81
2023/06/16 06:32:27;;;;;;;9.83;6.70;;;;;;;24.43;45.54;98095.06;5074878;28;20223;-83
2023/06/16 06:34:53;;;;;;;7.00;6.30;;;;;;;24.49;45.97;98096.97;5074830;28;20229;-83
2023/06/16 06:37:26;;;;;;;7.43;6.40;;;;;;;24.54;45.33;98097.25;5074816;28;20207;-83
2023/06/16 06:39:52;;;;;;;7.90;6.80;;;;;;;24.63;45.29;98098.78;5074066;28;20222;-83
2023/06/16 06:42:19;;;;;;;7.37;6.67;;;;;;;24.65;45.70;98110.25;5074386;28;20227;-83
2023/06/16 06:44:45;;;;;;;7.57;6.40;;;;;;;24.76;44.18;98096.19;5074588;28;20665;-83
2023/06/16 06:47:12;;;;;;;7.17;6.20;;;;;;;24.71;45.14;98106.78;5074578;28;20289;-83
2023/06/16 06:49:41;;;;;;;6.70;6.00;;;;;;;24.74;44.85;98110.97;5073975;28;20207;-83
2023/06/16 06:52:08;;;;;;;8.40;6.37;;;;;;;24.66;45.57;98114.63;5074444;28;20763;-83
2023/06/16 06:54:34;;;;;;;6.87;6.17;;;;;;;24.72;44.95;98116.56;5074241;28;20218;-83
2023/06/16 06:57:01;;;;;;;7.23;6.23;;;;;;;24.91;45.44;98124.00;5074477;28;20212;-83
2023/06/16 06:59:27;;;;;;;7.80;6.50;;;;;;;25.01;45.03;98119.09;5073391;28;20223;-83
2023/06/16 07:01:54;;;;;;;7.30;6.43;;;;;;;25.01;44.90;98123.66;5074096;28;20266;-85
2023/06/16 07:04:20;;;;;;;8.30;6.43;;;;;;;24.88;45.79;98132.47;5074020;28;20204;-78
2023/06/16 07:06:48;;;;;;;7.93;6.20;;;;;;;24.82;46.80;98141.38;5074112;28;20220;-78
2023/06/16 07:09:15;;;;;;;8.27;6.77;;;;;;;24.67;47.02;98146.03;5073344;28;20219;-78
2023/06/16 07:11:41;;;;;;;6.77;6.13;;;;;;;24.45;47.53;98147.03;5073884;28;20243;-79
2023/06/16 07:14:08;;;;;;;7.20;6.50;;;;;;;24.06;49.09;98165.50;5074085;28;20203;-78
2023/06/16 07:16:35;;;;;;;7.93;6.07;;;;;;;23.63;50.74;98168.22;5074029;28;20581;-78
2023/06/16 07:19:02;;;;;;;6.70;5.97;;;;;;;23.25;51.41;98177.41;5073937;28;20203;-78
2023/06/16 07:21:29;;;;;;;8.57;6.53;;;;;;;22.84;50.89;98165.28;5073185;28;20249;-78
2023/06/16 07:23:57;;;;;;;7.68;5.93;;;;;;;22.61;52.97;98180.66;5073508;28;20438;-79
2023/06/16 07:26:24;;;;;;;6.77;6.10;;;;;;;22.46;53.19;98187.81;5073904;28;20213;-78
2023/06/16 07:28:50;;;;;;;6.40;5.53;;;;;;;22.32;52.78;98186.69;5073697;28;20207;-78
2023/06/16 07:31:17;;;;;;;8.20;5.93;;;;;;;22.33;53.27;98199.16;5072139;28;20344;-80
2023/06/16 07:33:44;;;;;;;8.20;6.20;;;;;;;22.13;52.19;98181.75;5073314;28;20203;-83
2023/06/16 07:36:11;;;;;;;6.07;5.30;;;;;;;22.11;50.97;98164.94;5073454;28;20688;-84
2023/06/16 07:38:38;;;;;;;7.83;6.20;;;;;;;22.22;51.04;98175.31;5073625;28;20218;-81
2023/06/16 07:41:07;;;;;;;7.10;5.70;;;;;;;22.22;51.65;98175.31;5072464;28;20726;-83
2023/06/16 07:43:34;;;;;;;6.87;5.93;;;;;;;22.09;51.05;98177.75;5073644;28;20289;-81
2023/06/16 07:46:00;;;;;;;5.90;4.70;;;;;;;22.10;49.42;98157.88;5073384;28;20203;-88
2023/06/16 07:48:27;;;;;;;5.43;4.40;;;;;;;22.23;47.82;98133.91;5073094;28;20211;-87
2023/06/16 07:50:53;;;;;;;4.90;4.50;;;;;;;22.38;46.89;98126.72;5072184;28;20241;-87
2023/06/16 07:53:20;;;;;;;4.97;4.27;;;;;;;22.68;43.83;98130.41;5072801;28;20204;-87
2023/06/16 07:55:46;;;;;;;4.37;3.97;;;;;;;22.61;44.18;98130.28;5073348;28;20207;-87
2023/06/16 07:58:14;;;;;;;6.10;4.37;;;;;;;22.51;44.66;98127.00;5073201;28;20587;-87
2023/06/16 08:00:41;;;;;;;5.00;4.20;;;;;;;22.67;42.66;98115.25;5072677;28;20238;-87
2023/06/16 08:03:07;;;;;;;5.00;4.13;;;;;;;22.69;41.70;98108.69;5072914;28;20238;-83
2023/06/16 08:05:34;;;;;;;5.63;4.00;;;;;;;22.89;40.95;98104.44;5072801;28;20213;-83
2023/06/16 08:08:01;;;;;;;6.37;4.20;;;;;;;22.78;41.53;98112.97;5073131;28;20261;-83
2023/06/16 08:10:28;;;;;;;4.37;3.93;;;;;;;22.79;41.28;98109.25;5071951;28;20703;-83
2023/06/16 08:12:54;;;;;;;5.13;4.00;;;;;;;22.80;40.78;98105.50;5073073;28;20211;-83
2023/06/16 08:15:22;;;;;;;6.23;4.33;;;;;;;22.88;41.41;98102.75;5072525;28;20203;-83
2023/06/16 08:17:49;;;;;;;5.50;3.93;;;;;;;22.88;41.74;98107.31;5072377;28;20674;-83
2023/06/16 08:20:16;;;;;;;8.70;4.20;;;;;;;22.91;40.92;98102.38;5071937;28;20207;-83
2023/06/16 08:22:42;;;;;;;5.50;3.87;;;;;;;23.05;40.86;98104.25;5072366;28;20228;-83
2023/06/16 08:25:09;;;;;;;4.20;3.80;;;;;;;23.37;40.55;98095.00;5072634;28;20218;-83
2023/06/16 08:27:36;;;;;;;5.13;3.50;;;;;;;23.42;38.30;98066.44;5072513;28;20671;-83
2023/06/16 08:30:03;;;;;;;5.40;4.07;;;;;;;23.48;37.80;98068.38;5071630;28;20215;-83
2023/06/16 08:32:31;;;;;;;5.03;3.87;;;;;;;23.53;37.49;98070.53;5072218;28;20223;-83
2023/06/16 08:34:57;;;;;;;4.20;3.80;;;;;;;23.56;37.57;98076.41;5072522;28;20669;-83
2023/06/16 08:37:25;;;;;;;5.13;3.60;;;;;;;23.58;39.72;98090.53;5072861;28;20222;-83
2023/06/16 08:39:52;;;;;;;4.33;3.90;;;;;;;23.71;40.22;98100.66;5072209;28;20634;-83
2023/06/16 08:42:19;;;;;;;4.03;3.63;;;;;;;23.92;39.29;98096.19;5086985;22;20238;-86
2023/06/16 08:44:45;;;;;;;3.80;3.33;;;;;;;23.90;38.19;98078.50;5072034;28;20218;-85
2023/06/16 08:47:12;;;;;;;4.93;3.57;;;;;;;24.01;37.56;98061.81;5072054;28;20207;-85
2023/06/16 08:49:41;;;;;;;5.57;3.40;;;;;;;24.20;36.59;98067.38;5071411;28;20211;-85
2023/06/16 08:52:09;;;;;;;5.87;3.70;;;;;;;24.33;33.81;98048.59;5071917;28;20242;-84
2023/06/16 08:54:46;;;;;;;5.57;3.73;;;;;;;24.17;33.79;98038.06;5071930;28;20211;-84
2023/06/16 08:57:15;;;;;;;4.97;3.70;;;;;;;24.14;34.74;98051.94;5071763;28;20211;-84
2023/06/16 08:59:47;;;;;;;4.50;3.77;;;;;;;24.34;32.19;98023.28;5070921;28;20238;-84
2023/06/16 09:02:13;;;;;;;4.30;3.47;;;;;;;24.11;32.88;98027.19;5071768;28;20646;-84
2023/06/16 09:04:42;;;;;;;4.23;3.57;;;;;;;24.30;33.33;98040.91;5071707;28;20207;-82
2023/06/16 09:07:09;;;;;;;4.23;3.43;;;;;;;;;;5071445;28;20696;-81
2023/06/16 09:09:35;;;;;;;3.87;3.40;;;;;;;24.33;32.62;98032.38;5070722;28;20257;-82
2023/06/16 09:12:07;;;;;;;4.53;3.43;;;;;;;24.36;33.19;98037.41;5071145;28;20235;-82
2023/06/16 09:14:36;;;;;;;5.17;3.53;;;;;;;24.52;32.96;98031.75;5071333;28;20212;-82
2023/06/16 09:17:05;;;;;;;4.57;3.37;;;;;;;24.49;32.54;98025.88;5071253;28;20203;-81
2023/06/16 09:19:34;;;;;;;4.17;3.30;;;;;;;24.48;32.60;98026.91;5070759;28;20239;-82
2023/06/16 09:22:02;;;;;;;4.63;3.30;;;;;;;24.46;32.80;98027.13;5071178;28;20322;-82
2023/06/16 09:24:29;;;;;;;4.40;3.40;;;;;;;24.54;32.17;98028.81;5071233;28;20219;-82
2023/06/16 09:27:00;;;;;;;4.07;3.20;;;;;;;24.78;33.67;98050.91;5070966;28;20276;-82
2023/06/16 09:29:28;;;;;;;4.00;3.30;;;;;;;24.67;32.73;98028.97;5070397;28;20961;-81
2023/06/16 09:31:54;;;;;;;4.83;3.90;;;;;;;24.69;32.52;98032.31;5071255;28;20606;-82
2023/06/16 09:34:21;;;;;;;6.93;3.73;;;;;;;24.81;32.09;98025.34;5071046;28;20207;-82
2023/06/16 09:36:47;;;;;;;4.63;3.43;;;;;;;24.68;32.34;98020.66;5071006;28;20579;-82
2023/06/16 09:39:25;;;;;;;4.00;3.60;;;;;;;24.77;33.26;98027.59;5070189;28;20210;-80
2023/06/16 09:41:53;;;;;;;4.55;3.42;;;;;;;24.89;33.89;98039.56;5070836;28;20250;-81
2023/06/16 09:44:22;;;;;;;5.30;3.42;;;;;;;24.92;33.74;98028.31;5071059;28;20203;-82
2023/06/16 09:46:49;;;;;;;4.23;3.70;;;;;;;25.17;34.29;98045.75;5071018;28;20207;-80
2023/06/16 09:49:25;;;;;;;6.10;3.83;;;;;;;25.52;33.47;98036.59;5070199;28;20260;-83
2023/06/16 09:51:52;;;;;;;5.75;4.13;;;;;;;25.88;33.83;98031.72;5070554;28;20234;-82
2023/06/16 09:54:20;;;;;;;4.50;3.80;;;;;;;26.26;33.62;98041.00;5070916;28;20207;-80
2023/06/16 09:56:49;;;;;;;5.35;3.92;;;;;;;26.24;32.70;98025.97;5070713;28;20213;-83
2023/06/16 09:59:16;;;;;;;6.45;4.05;;;;;;;25.98;33.40;98036.78;5070140;28;20713;-83
2023/06/16 10:01:45;;;;;;;4.03;3.58;;;;;;;25.64;32.67;98028.72;5070710;28;20235;-85
2023/06/16 10:04:13;;;;;;;5.15;3.60;;;;;;;25.36;34.02;98036.94;5071018;28;20298;-85
2023/06/16 10:06:44;;;;;;;3.78;3.47;;;;;;;25.01;33.70;98024.44;5070729;28;20203;-79
2023/06/16 10:09:11;;;;;;;4.22;3.40;;;;;;;24.86;33.90;98029.13;5070276;28;20623;-89
2023/06/16 10:11:39;;;;;;;4.03;3.58;;;;;;;24.60;33.91;98031.63;5070615;28;20239;-82
2023/06/16 10:14:08;;;;;;;4.47;3.33;;;;;;;24.56;34.08;98021.38;5070666;28;20207;-79
2023/06/16 10:16:37;;;;;;;4.10;3.63;;;;;;;24.69;34.07;98016.94;5070624;28;20249;-81
2023/06/16 10:19:06;;;;;;;4.47;3.83;;;;;;;25.01;34.02;98024.44;5070365;28;20219;-81
2023/06/16 10:21:32;;;;;;;4.18;3.78;;;;;;;25.35;33.83;98034.44;5070116;28;20227;-80
2023/06/16 10:24:00;;;;;;;5.45;3.78;;;;;;;25.73;33.52;98027.50;5070634;28;20238;-79
2023/06/16 10:26:27;;;;;;;5.50;3.70;;;;;;;25.70;32.34;98007.09;5070592;28;20399;-79
2023/06/16 10:28:55;;;;;;;3.92;3.53;;;;;;;25.83;30.63;97996.28;5070686;28;20212;-79
2023/06/16 10:31:27;;;;;;;3.40;3.10;;;;;;;25.73;30.90;97984.19;5069555;28;20228;-80
2023/06/16 10:33:56;;;;;;;4.60;3.50;;;;;;;25.68;30.68;97987.53;5070732;28;20199;-80
2023/06/16 10:36:24;;;;;;;5.40;3.60;;;;;;;25.94;30.60;97995.72;5070562;28;20206;-80
2023/06/16 10:38:59;;;;;;;6.13;3.60;;;;;;;26.13;30.36;97989.50;5070346;28;20212;-80
2023/06/16 10:41:29;;;;;;;3.90;3.17;;;;;;;26.20;31.05;98003.06;5069997;28;20334;-80
2023/06/16 10:43:55;;;;;;;3.72;3.35;;;;;;;26.19;29.37;97985.97;5070236;28;20237;-80
2023/06/16 10:46:25;;;;;;;5.05;3.47;;;;;;;25.63;29.77;97981.88;5070558;28;20214;-80
2023/06/16 10:49:18;;;;;;;4.47;3.40;;;;;;;25.28;30.30;97985.69;5070483;28;20207;-80
2023/06/16 10:51:47;;;;;;;4.00;3.23;;;;;;;25.20;30.20;97977.72;5070206;28;20278;-78
2023/06/16 10:54:15;;;;;;;4.80;3.70;;;;;;;25.21;30.25;97983.94;5070237;28;20209;-79
2023/06/16 10:57:04;;;;;;;5.03;3.70;;;;;;;25.40;30.74;97986.78;5070064;28;20204;-78
2023/06/16 10:59:31;;;;;;;3.85;3.45;;;;;;;25.66;30.32;97989.56;5069541;28;20662;-78
2023/06/16 11:01:59;;;;;;;4.03;3.63;;;;;;;25.67;30.44;97983.13;5070068;28;20739;-78
2023/06/16 11:04:26;;;;;;;3.75;3.35;;;;;;;25.68;29.83;97982.09;5070396;28;20211;-78
2023/06/16 11:07:11;;;;;;;6.05;3.67;;;;;;;25.50;30.19;97970.16;5070579;28;20208;-79
2023/06/16 11:09:37;;;;;;;4.13;3.55;;;;;;;25.43;30.54;97993.66;5073119;28;20209;-78
2023/06/16 11:12:06;;;;;;;3.80;3.40;;;;;;;25.46;30.87;97993.25;5073536;28;20231;-78
2023/06/16 11:14:33;;;;;;;5.97;3.88;;;;;;;25.66;29.92;97984.16;5073863;28;20633;-78
2023/06/16 11:17:02;;;;;;;4.88;3.35;;;;;;;25.57;30.79;97990.81;5073498;28;20215;-78
2023/06/16 11:19:29;;;;;;;4.43;3.38;;;;;;;25.64;30.52;97983.53;5072903;28;20704;-79
2023/06/16 11:21:55;;;;;;;4.40;3.77;;;;;;;25.71;30.60;97983.53;5073506;28;20235;-77
2023/06/16 11:24:23;;;;;;;5.07;3.25;;;;;;;25.70;30.03;97979.16;5073528;28;20247;-78
2023/06/16 11:26:50;;;;;;;4.20;3.77;;;;;;;25.44;30.16;97977.25;5073339;28;20242;-78
2023/06/16 11:29:16;;;;;;;4.43;3.65;;;;;;;25.25;29.79;97969.88;5072612;28;20296;-79
2023/06/16 11:31:43;;;;;;;5.22;3.78;;;;;;;25.20;30.44;97972.31;5073227;28;20610;-78
2023/06/16 11:34:13;;;;;;;4.03;3.63;;;;;;;25.40;30.53;97967.00;5073621;28;20203;-78
2023/06/16 11:36:46;;;;;;;5.00;3.83;;;;;;;25.69;30.69;97983.78;5073618;28;20211;-78